This is the latest recevied weather packets stored in our database for station/object IW0REF-14. If no packets are shown the sender has not sent any weather packets the latest 10 day(s).
| Time | Temp. | Humidity | Pressure | Rain* | Wind** | Luminosity | Snow |
|---|---|---|---|---|---|---|---|
| 1777491033 | 13.33° C | 29% | 1012.8 hPa | - | - | - | - |
| 1777490993 | 13.33° C | 29% | 1012.8 hPa | - | - | - | - |
| 1777490093 | 12.78° C | 34% | 1012.7 hPa | - | - | - | - |
| 1777489228 | 12.78° C | 36% | 1012.6 hPa | - | - | - | - |
| 1777489193 | 12.78° C | 36% | 1012.6 hPa | - | - | - | - |
| 1777488293 | 12.78° C | 36% | 1012.6 hPa | - | - | - | - |
| 1777487393 | 13.33° C | 36% | 1012.6 hPa | - | - | - | - |
| 1777486493 | 13.33° C | 36% | 1012.5 hPa | - | - | - | - |
| 1777485593 | 13.89° C | 35% | 1012.6 hPa | - | - | - | - |
| 1777484701 | 14.44° C | 32% | 1012.5 hPa | - | - | - | - |
| 1777483979 | 16.11° C | 27% | 1012.5 hPa | - | - | - | - |
| 1777483793 | 16.11° C | 27% | 1012.5 hPa | - | - | - | - |
| 1777482893 | 16.67° C | 27% | 1012.4 hPa | - | - | - | - |
| 1777481992 | 16.11° C | 28% | 1012.5 hPa | - | - | - | - |
| 1777481101 | 16.11° C | 28% | 1012.4 hPa | - | - | - | - |
| 1777480192 | 17.78° C | 27% | 1012.3 hPa | - | - | - | - |
| 1777479292 | 20.56° C | 23% | 1012.2 hPa | - | - | - | - |
| 1777478395 | 21.11° C | 23% | 1012.3 hPa | - | - | - | - |
| 1777477482 | 21.67° C | 22% | 1012.4 hPa | - | - | - | - |
| 1777476582 | 22.22° C | 21% | 1012.3 hPa | - | - | - | - |
| 1777475682 | 20° C | 24% | 1012.4 hPa | - | - | - | - |
| 1777474782 | 20.56° C | 23% | 1012.5 hPa | - | - | - | - |
| 1777473882 | 21.67° C | 22% | 1012.5 hPa | - | - | - | - |
| 1777472982 | 22.22° C | 22% | 1012.6 hPa | - | - | - | - |
| 1777472082 | 21.67° C | 23% | 1012.6 hPa | - | - | - | - |
* Rain since midnight (hover to see other rain measurements)
** Current wind speed in m/s (hover to see current wind gust speed)